Annabella, Utah
Current Conditions -  °F | °C
As of 8:55 PM on Saturday 20 Dec 2014 (Local Time) from KDTA Reporting Station
Broken Clouds Broken Clouds  
Wind Chill: 30°   Ceiling: 6000
Heat Index: 35°   Visibility: 10mi
Dew Point: 33°   Wind: 6mph
Humidity: 92%   Direction: 60°ENE
Pressure: 30.08"   Gusts: NA
Location:  38.71°N, 112.06°W
Report Text: KDTA 210355Z AUTO 06005KT 10SM BKN060 02/00 A3008 RMK AO1 T00160004
Loading
Personal Weather Stations






























Interactive Weather Map New forecast layout! Learn more

10-Day Weather Forecast

Advertisements
Track Severe Weather on mobile